Terminal Aerodrome Forecast
Issued by NWS

Home | Current Version | Previous Version | Text Only | Print | Product List | Glossary On
Versions: 1 2 3 4 5 6 7 8 9 10 11 12 13 14 15 16 17 18 19 20
000
FTUS46 KLOX 231700
TAFSBP
TAF
KSBP 231728Z 2318/2418 11004KT P6SM OVC011
     FM231900 30010KT P6SM SKC
     FM240400 VRB03KT P6SM SKC
     FM240600 VRB03KT P6SM BKN010
     FM240900 VRB03KT P6SM OVC008
     FM241600 VRB03KT P6SM BKN013=

USA.gov is the U.S. government's official web portal to all federal, state and local government web resources and services.